sensor_id;sensor_type;location;lat;lon;timestamp;temperature;humidity
23377;DHT22;14353;46.070;13.222;2023-05-28T00:00:32;27.80;46.60
23377;DHT22;14353;46.070;13.222;2023-05-28T00:02:58;27.80;46.60
23377;DHT22;14353;46.070;13.222;2023-05-28T00:05:25;27.80;46.70
23377;DHT22;14353;46.070;13.222;2023-05-28T00:07:51;27.80;46.70
23377;DHT22;14353;46.070;13.222;2023-05-28T00:10:16;27.80;46.70
23377;DHT22;14353;46.070;13.222;2023-05-28T00:12:42;27.80;46.70
23377;DHT22;14353;46.070;13.222;2023-05-28T00:15:08;27.80;46.70
23377;DHT22;14353;46.070;13.222;2023-05-28T00:17:35;27.80;46.70
23377;DHT22;14353;46.070;13.222;2023-05-28T00:20:00;27.80;46.80
23377;DHT22;14353;46.070;13.222;2023-05-28T00:22:26;27.80;46.80
23377;DHT22;14353;46.070;13.222;2023-05-28T00:24:52;27.80;46.80
23377;DHT22;14353;46.070;13.222;2023-05-28T00:27:17;27.80;46.80
23377;DHT22;14353;46.070;13.222;2023-05-28T00:29:43;27.80;46.80
23377;DHT22;14353;46.070;13.222;2023-05-28T00:32:09;27.80;46.80
23377;DHT22;14353;46.070;13.222;2023-05-28T00:34:35;27.80;46.80
23377;DHT22;14353;46.070;13.222;2023-05-28T00:37:01;27.80;46.80
23377;DHT22;14353;46.070;13.222;2023-05-28T00:39:27;27.80;46.80
23377;DHT22;14353;46.070;13.222;2023-05-28T00:42:02;27.80;46.80
23377;DHT22;14353;46.070;13.222;2023-05-28T00:44:29;27.70;46.70
23377;DHT22;14353;46.070;13.222;2023-05-28T00:46:57;27.70;46.80
23377;DHT22;14353;46.070;13.222;2023-05-28T00:49:23;27.70;46.70
23377;DHT22;14353;46.070;13.222;2023-05-28T00:51:49;27.70;46.80
23377;DHT22;14353;46.070;13.222;2023-05-28T00:54:15;27.70;46.80
23377;DHT22;14353;46.070;13.222;2023-05-28T00:56:41;27.70;46.80
23377;DHT22;14353;46.070;13.222;2023-05-28T00:59:09;27.70;46.80
23377;DHT22;14353;46.070;13.222;2023-05-28T01:01:36;27.70;46.80
23377;DHT22;14353;46.070;13.222;2023-05-28T01:04:02;27.70;46.80
23377;DHT22;14353;46.070;13.222;2023-05-28T01:06:29;27.70;46.80
23377;DHT22;14353;46.070;13.222;2023-05-28T01:08:55;27.70;47.50
23377;DHT22;14353;46.070;13.222;2023-05-28T01:11:23;27.70;46.90
23377;DHT22;14353;46.070;13.222;2023-05-28T01:13:50;27.70;46.90
23377;DHT22;14353;46.070;13.222;2023-05-28T01:16:16;27.70;46.90
23377;DHT22;14353;46.070;13.222;2023-05-28T01:18:42;27.70;46.90
23377;DHT22;14353;46.070;13.222;2023-05-28T01:21:10;27.70;46.90
23377;DHT22;14353;46.070;13.222;2023-05-28T01:23:45;27.70;46.90
23377;DHT22;14353;46.070;13.222;2023-05-28T01:26:12;27.70;46.90
23377;DHT22;14353;46.070;13.222;2023-05-28T01:28:38;27.70;46.90
23377;DHT22;14353;46.070;13.222;2023-05-28T01:31:10;27.70;47.60
23377;DHT22;14353;46.070;13.222;2023-05-28T01:33:36;27.70;47.00
23377;DHT22;14353;46.070;13.222;2023-05-28T01:36:04;27.70;47.00
23377;DHT22;14353;46.070;13.222;2023-05-28T01:38:31;27.60;46.90
23377;DHT22;14353;46.070;13.222;2023-05-28T01:40:59;27.60;47.00
23377;DHT22;14353;46.070;13.222;2023-05-28T01:43:26;27.60;47.00
23377;DHT22;14353;46.070;13.222;2023-05-28T01:45:52;27.60;47.00
23377;DHT22;14353;46.070;13.222;2023-05-28T01:48:18;27.60;47.00
23377;DHT22;14353;46.070;13.222;2023-05-28T01:50:44;27.60;47.00
23377;DHT22;14353;46.070;13.222;2023-05-28T01:53:10;27.60;47.00
23377;DHT22;14353;46.070;13.222;2023-05-28T01:55:36;27.60;47.00
23377;DHT22;14353;46.070;13.222;2023-05-28T01:58:02;27.60;47.10
23377;DHT22;14353;46.070;13.222;2023-05-28T02:00:27;27.60;47.10
23377;DHT22;14353;46.070;13.222;2023-05-28T02:02:53;27.60;47.10
23377;DHT22;14353;46.070;13.222;2023-05-28T02:05:19;27.60;47.10
23377;DHT22;14353;46.070;13.222;2023-05-28T02:07:45;27.60;47.10
23377;DHT22;14353;46.070;13.222;2023-05-28T02:10:11;27.60;47.10
23377;DHT22;14353;46.070;13.222;2023-05-28T02:12:37;27.60;47.10
23377;DHT22;14353;46.070;13.222;2023-05-28T02:15:03;27.60;47.10
23377;DHT22;14353;46.070;13.222;2023-05-28T02:17:28;27.60;47.10
23377;DHT22;14353;46.070;13.222;2023-05-28T02:19:54;27.60;47.20
23377;DHT22;14353;46.070;13.222;2023-05-28T02:22:20;27.50;47.10
23377;DHT22;14353;46.070;13.222;2023-05-28T02:24:45;27.60;47.20
23377;DHT22;14353;46.070;13.222;2023-05-28T02:27:12;27.50;47.10
23377;DHT22;14353;46.070;13.222;2023-05-28T02:29:38;27.50;47.10
23377;DHT22;14353;46.070;13.222;2023-05-28T02:32:04;27.60;47.20
23377;DHT22;14353;46.070;13.222;2023-05-28T02:34:30;27.50;47.10
23377;DHT22;14353;46.070;13.222;2023-05-28T02:36:56;27.50;47.10
23377;DHT22;14353;46.070;13.222;2023-05-28T02:39:22;27.50;47.20
23377;DHT22;14353;46.070;13.222;2023-05-28T02:41:48;27.50;47.20
23377;DHT22;14353;46.070;13.222;2023-05-28T02:44:14;27.50;47.20
23377;DHT22;14353;46.070;13.222;2023-05-28T02:46:40;27.50;47.20
23377;DHT22;14353;46.070;13.222;2023-05-28T02:49:06;27.50;47.20
23377;DHT22;14353;46.070;13.222;2023-05-28T02:51:32;27.50;47.20
23377;DHT22;14353;46.070;13.222;2023-05-28T02:53:57;27.50;47.30
23377;DHT22;14353;46.070;13.222;2023-05-28T02:56:23;27.50;47.30
23377;DHT22;14353;46.070;13.222;2023-05-28T02:58:49;27.50;47.30
23377;DHT22;14353;46.070;13.222;2023-05-28T03:01:15;27.50;47.30
23377;DHT22;14353;46.070;13.222;2023-05-28T03:03:40;27.50;47.30
23377;DHT22;14353;46.070;13.222;2023-05-28T03:06:06;27.50;47.30
23377;DHT22;14353;46.070;13.222;2023-05-28T03:08:33;27.50;47.30
23377;DHT22;14353;46.070;13.222;2023-05-28T03:10:58;27.50;47.30
23377;DHT22;14353;46.070;13.222;2023-05-28T03:13:24;27.50;47.30
23377;DHT22;14353;46.070;13.222;2023-05-28T03:15:50;27.50;47.40
23377;DHT22;14353;46.070;13.222;2023-05-28T03:18:15;27.40;47.30
23377;DHT22;14353;46.070;13.222;2023-05-28T03:20:41;27.40;47.30
23377;DHT22;14353;46.070;13.222;2023-05-28T03:23:07;27.40;47.30
23377;DHT22;14353;46.070;13.222;2023-05-28T03:25:33;27.40;47.30
23377;DHT22;14353;46.070;13.222;2023-05-28T03:27:59;27.40;47.30
23377;DHT22;14353;46.070;13.222;2023-05-28T03:30:24;27.40;47.30
23377;DHT22;14353;46.070;13.222;2023-05-28T03:32:50;27.40;47.30
23377;DHT22;14353;46.070;13.222;2023-05-28T03:35:16;27.40;47.30
23377;DHT22;14353;46.070;13.222;2023-05-28T03:37:42;27.40;48.00
23377;DHT22;14353;46.070;13.222;2023-05-28T03:40:08;27.40;47.40
23377;DHT22;14353;46.070;13.222;2023-05-28T03:42:35;27.40;47.40
23377;DHT22;14353;46.070;13.222;2023-05-28T03:45:01;27.40;47.40
23377;DHT22;14353;46.070;13.222;2023-05-28T03:47:26;27.40;47.40
23377;DHT22;14353;46.070;13.222;2023-05-28T03:49:56;27.40;47.40
23377;DHT22;14353;46.070;13.222;2023-05-28T03:52:22;27.40;47.40
23377;DHT22;14353;46.070;13.222;2023-05-28T03:54:47;27.40;47.40
23377;DHT22;14353;46.070;13.222;2023-05-28T03:57:13;27.40;47.40
23377;DHT22;14353;46.070;13.222;2023-05-28T03:59:39;27.40;47.40
23377;DHT22;14353;46.070;13.222;2023-05-28T04:02:04;27.40;47.40
23377;DHT22;14353;46.070;13.222;2023-05-28T04:04:30;27.40;47.40
23377;DHT22;14353;46.070;13.222;2023-05-28T04:06:56;27.40;47.40
23377;DHT22;14353;46.070;13.222;2023-05-28T04:09:22;27.40;47.40
23377;DHT22;14353;46.070;13.222;2023-05-28T04:11:48;27.40;47.30
23377;DHT22;14353;46.070;13.222;2023-05-28T04:14:14;27.40;47.30
23377;DHT22;14353;46.070;13.222;2023-05-28T04:16:39;27.40;47.40
23377;DHT22;14353;46.070;13.222;2023-05-28T04:19:05;27.40;47.30
23377;DHT22;14353;46.070;13.222;2023-05-28T04:21:31;27.40;47.30
23377;DHT22;14353;46.070;13.222;2023-05-28T04:23:57;27.50;47.40
23377;DHT22;14353;46.070;13.222;2023-05-28T04:26:23;27.50;47.40
23377;DHT22;14353;46.070;13.222;2023-05-28T04:28:49;27.50;47.40
23377;DHT22;14353;46.070;13.222;2023-05-28T04:31:16;27.50;47.30
23377;DHT22;14353;46.070;13.222;2023-05-28T04:33:42;27.50;47.30
23377;DHT22;14353;46.070;13.222;2023-05-28T04:36:11;27.50;47.30
23377;DHT22;14353;46.070;13.222;2023-05-28T04:38:39;27.50;47.30
23377;DHT22;14353;46.070;13.222;2023-05-28T04:41:05;27.50;47.30
23377;DHT22;14353;46.070;13.222;2023-05-28T04:43:31;27.50;47.30
23377;DHT22;14353;46.070;13.222;2023-05-28T04:45:58;27.50;47.30
23377;DHT22;14353;46.070;13.222;2023-05-28T04:48:25;27.50;47.20
23377;DHT22;14353;46.070;13.222;2023-05-28T04:50:51;27.50;47.30
23377;DHT22;14353;46.070;13.222;2023-05-28T04:53:17;27.50;47.30
23377;DHT22;14353;46.070;13.222;2023-05-28T04:55:43;27.50;47.30
23377;DHT22;14353;46.070;13.222;2023-05-28T04:58:10;27.50;47.30
23377;DHT22;14353;46.070;13.222;2023-05-28T05:00:36;27.50;47.30
23377;DHT22;14353;46.070;13.222;2023-05-28T05:03:02;27.50;47.30
23377;DHT22;14353;46.070;13.222;2023-05-28T05:05:28;27.50;47.30
23377;DHT22;14353;46.070;13.222;2023-05-28T05:07:54;27.50;47.20
23377;DHT22;14353;46.070;13.222;2023-05-28T05:10:20;27.50;47.30
23377;DHT22;14353;46.070;13.222;2023-05-28T05:12:46;27.50;47.20
23377;DHT22;14353;46.070;13.222;2023-05-28T05:15:11;27.50;47.20
23377;DHT22;14353;46.070;13.222;2023-05-28T05:17:37;27.50;47.20
23377;DHT22;14353;46.070;13.222;2023-05-28T05:20:04;27.50;47.20
23377;DHT22;14353;46.070;13.222;2023-05-28T05:22:32;27.50;47.10
23377;DHT22;14353;46.070;13.222;2023-05-28T05:24:58;27.50;47.10
23377;DHT22;14353;46.070;13.222;2023-05-28T05:27:24;27.50;47.10
23377;DHT22;14353;46.070;13.222;2023-05-28T05:29:50;27.50;47.10
23377;DHT22;14353;46.070;13.222;2023-05-28T05:32:16;27.50;47.10
23377;DHT22;14353;46.070;13.222;2023-05-28T05:34:41;27.60;47.10
23377;DHT22;14353;46.070;13.222;2023-05-28T05:37:07;27.60;47.10
23377;DHT22;14353;46.070;13.222;2023-05-28T05:39:33;27.60;47.10
23377;DHT22;14353;46.070;13.222;2023-05-28T05:41:58;27.60;47.00
23377;DHT22;14353;46.070;13.222;2023-05-28T05:44:24;27.60;47.00
23377;DHT22;14353;46.070;13.222;2023-05-28T05:46:50;27.60;46.90
23377;DHT22;14353;46.070;13.222;2023-05-28T05:49:16;27.60;46.90
23377;DHT22;14353;46.070;13.222;2023-05-28T05:51:42;27.70;46.90
23377;DHT22;14353;46.070;13.222;2023-05-28T05:54:07;27.70;46.70
23377;DHT22;14353;46.070;13.222;2023-05-28T05:56:36;27.80;46.80
23377;DHT22;14353;46.070;13.222;2023-05-28T05:59:02;27.80;46.60
23377;DHT22;14353;46.070;13.222;2023-05-28T06:01:28;27.80;46.60
23377;DHT22;14353;46.070;13.222;2023-05-28T06:03:55;27.90;46.60
23377;DHT22;14353;46.070;13.222;2023-05-28T06:06:21;27.90;46.40
23377;DHT22;14353;46.070;13.222;2023-05-28T06:08:47;27.90;46.30
23377;DHT22;14353;46.070;13.222;2023-05-28T06:11:12;28.00;46.30
23377;DHT22;14353;46.070;13.222;2023-05-28T06:13:38;28.00;46.30
23377;DHT22;14353;46.070;13.222;2023-05-28T06:16:04;28.00;46.20
23377;DHT22;14353;46.070;13.222;2023-05-28T06:18:30;28.10;46.20
23377;DHT22;14353;46.070;13.222;2023-05-28T06:20:56;28.10;46.10
23377;DHT22;14353;46.070;13.222;2023-05-28T06:23:22;28.10;46.00
23377;DHT22;14353;46.070;13.222;2023-05-28T06:25:48;28.10;45.90
23377;DHT22;14353;46.070;13.222;2023-05-28T06:28:14;28.20;46.00
23377;DHT22;14353;46.070;13.222;2023-05-28T06:30:40;28.20;45.90
23377;DHT22;14353;46.070;13.222;2023-05-28T06:33:06;28.20;45.80
23377;DHT22;14353;46.070;13.222;2023-05-28T06:35:32;28.20;45.80
23377;DHT22;14353;46.070;13.222;2023-05-28T06:37:58;28.20;45.70
23377;DHT22;14353;46.070;13.222;2023-05-28T06:40:23;28.30;45.80
23377;DHT22;14353;46.070;13.222;2023-05-28T06:42:49;28.30;45.70
23377;DHT22;14353;46.070;13.222;2023-05-28T06:45:15;28.30;45.70
23377;DHT22;14353;46.070;13.222;2023-05-28T06:47:41;28.30;45.60
23377;DHT22;14353;46.070;13.222;2023-05-28T06:50:07;28.30;45.60
23377;DHT22;14353;46.070;13.222;2023-05-28T06:52:33;28.30;45.60
23377;DHT22;14353;46.070;13.222;2023-05-28T06:54:59;28.30;45.60
23377;DHT22;14353;46.070;13.222;2023-05-28T06:57:25;28.30;45.50
23377;DHT22;14353;46.070;13.222;2023-05-28T06:59:50;28.40;45.60
23377;DHT22;14353;46.070;13.222;2023-05-28T07:02:16;28.40;45.50
23377;DHT22;14353;46.070;13.222;2023-05-28T07:04:42;28.40;45.50
23377;DHT22;14353;46.070;13.222;2023-05-28T07:07:07;28.40;45.50
23377;DHT22;14353;46.070;13.222;2023-05-28T07:09:33;28.40;45.40
23377;DHT22;14353;46.070;13.222;2023-05-28T07:11:59;28.40;45.40
23377;DHT22;14353;46.070;13.222;2023-05-28T07:14:26;28.40;45.30
23377;DHT22;14353;46.070;13.222;2023-05-28T07:16:52;28.50;45.40
23377;DHT22;14353;46.070;13.222;2023-05-28T07:19:17;28.50;45.20
23377;DHT22;14353;46.070;13.222;2023-05-28T07:21:44;28.50;45.30
23377;DHT22;14353;46.070;13.222;2023-05-28T07:24:10;28.50;45.20
23377;DHT22;14353;46.070;13.222;2023-05-28T07:26:36;28.50;45.20
23377;DHT22;14353;46.070;13.222;2023-05-28T07:29:02;28.60;45.20
23377;DHT22;14353;46.070;13.222;2023-05-28T07:31:27;28.60;45.00
23377;DHT22;14353;46.070;13.222;2023-05-28T07:33:57;28.60;45.00
23377;DHT22;14353;46.070;13.222;2023-05-28T07:36:23;28.60;44.90
23377;DHT22;14353;46.070;13.222;2023-05-28T07:38:49;28.60;44.90
23377;DHT22;14353;46.070;13.222;2023-05-28T07:41:15;28.60;44.80
23377;DHT22;14353;46.070;13.222;2023-05-28T07:43:41;28.60;44.80
23377;DHT22;14353;46.070;13.222;2023-05-28T07:46:07;28.60;44.80
23377;DHT22;14353;46.070;13.222;2023-05-28T07:48:32;28.60;44.80
23377;DHT22;14353;46.070;13.222;2023-05-28T07:50:58;28.60;44.80
23377;DHT22;14353;46.070;13.222;2023-05-28T07:53:24;28.60;44.70
23377;DHT22;14353;46.070;13.222;2023-05-28T07:55:50;28.60;44.70
23377;DHT22;14353;46.070;13.222;2023-05-28T07:58:18;28.60;44.70
23377;DHT22;14353;46.070;13.222;2023-05-28T08:00:44;28.60;44.70
23377;DHT22;14353;46.070;13.222;2023-05-28T08:03:10;28.60;44.50
23377;DHT22;14353;46.070;13.222;2023-05-28T08:05:37;28.60;44.40
23377;DHT22;14353;46.070;13.222;2023-05-28T08:08:02;28.70;44.50
23377;DHT22;14353;46.070;13.222;2023-05-28T08:10:28;28.70;44.40
23377;DHT22;14353;46.070;13.222;2023-05-28T08:12:54;28.70;44.30
23377;DHT22;14353;46.070;13.222;2023-05-28T08:15:21;28.70;44.30
23377;DHT22;14353;46.070;13.222;2023-05-28T08:17:47;28.70;44.20
23377;DHT22;14353;46.070;13.222;2023-05-28T08:20:13;28.70;44.10
23377;DHT22;14353;46.070;13.222;2023-05-28T08:22:38;28.70;44.10
23377;DHT22;14353;46.070;13.222;2023-05-28T08:25:05;28.80;44.00
23377;DHT22;14353;46.070;13.222;2023-05-28T08:27:31;28.80;44.70
23377;DHT22;14353;46.070;13.222;2023-05-28T08:29:57;28.80;44.00
23377;DHT22;14353;46.070;13.222;2023-05-28T08:32:23;28.80;43.90
23377;DHT22;14353;46.070;13.222;2023-05-28T08:34:48;28.80;43.80
23377;DHT22;14353;46.070;13.222;2023-05-28T08:37:14;28.80;43.80
23377;DHT22;14353;46.070;13.222;2023-05-28T08:39:40;28.80;43.80
23377;DHT22;14353;46.070;13.222;2023-05-28T08:42:06;28.80;43.70
23377;DHT22;14353;46.070;13.222;2023-05-28T08:44:32;28.80;43.70
23377;DHT22;14353;46.070;13.222;2023-05-28T08:46:59;28.90;43.70
23377;DHT22;14353;46.070;13.222;2023-05-28T08:49:30;28.90;43.60
23377;DHT22;14353;46.070;13.222;2023-05-28T08:51:59;28.90;43.60
23377;DHT22;14353;46.070;13.222;2023-05-28T08:54:28;28.90;43.50
23377;DHT22;14353;46.070;13.222;2023-05-28T08:56:55;28.90;43.50
23377;DHT22;14353;46.070;13.222;2023-05-28T08:59:21;28.90;43.40
23377;DHT22;14353;46.070;13.222;2023-05-28T09:01:47;29.00;43.50
23377;DHT22;14353;46.070;13.222;2023-05-28T09:04:13;28.90;43.40
23377;DHT22;14353;46.070;13.222;2023-05-28T09:06:38;29.00;43.50
23377;DHT22;14353;46.070;13.222;2023-05-28T09:09:05;29.00;43.40
23377;DHT22;14353;46.070;13.222;2023-05-28T09:11:33;29.00;44.10
23377;DHT22;14353;46.070;13.222;2023-05-28T09:14:08;29.00;43.30
23377;DHT22;14353;46.070;13.222;2023-05-28T09:16:36;29.00;43.20
23377;DHT22;14353;46.070;13.222;2023-05-28T09:19:03;29.00;43.30
23377;DHT22;14353;46.070;13.222;2023-05-28T09:21:29;29.00;43.20
23377;DHT22;14353;46.070;13.222;2023-05-28T09:23:55;29.00;43.40
23377;DHT22;14353;46.070;13.222;2023-05-28T09:26:21;29.00;43.40
23377;DHT22;14353;46.070;13.222;2023-05-28T09:28:49;29.10;43.20
23377;DHT22;14353;46.070;13.222;2023-05-28T09:31:18;29.10;43.10
23377;DHT22;14353;46.070;13.222;2023-05-28T09:33:47;29.10;43.40
23377;DHT22;14353;46.070;13.222;2023-05-28T09:36:17;29.10;43.40
23377;DHT22;14353;46.070;13.222;2023-05-28T09:38:43;29.10;43.30
23377;DHT22;14353;46.070;13.222;2023-05-28T09:41:20;29.10;43.40
23377;DHT22;14353;46.070;13.222;2023-05-28T09:43:46;29.10;43.40
23377;DHT22;14353;46.070;13.222;2023-05-28T09:46:20;29.10;43.40
23377;DHT22;14353;46.070;13.222;2023-05-28T09:48:45;29.10;43.40
23377;DHT22;14353;46.070;13.222;2023-05-28T09:51:12;29.10;43.40
23377;DHT22;14353;46.070;13.222;2023-05-28T09:53:43;29.10;43.40
23377;DHT22;14353;46.070;13.222;2023-05-28T09:56:09;29.10;43.40
23377;DHT22;14353;46.070;13.222;2023-05-28T09:58:37;29.20;43.50
23377;DHT22;14353;46.070;13.222;2023-05-28T10:01:13;29.10;43.40
23377;DHT22;14353;46.070;13.222;2023-05-28T10:03:43;29.20;43.40
23377;DHT22;14353;46.070;13.222;2023-05-28T10:06:16;29.20;43.40
23377;DHT22;14353;46.070;13.222;2023-05-28T10:08:46;29.20;43.30
23377;DHT22;14353;46.070;13.222;2023-05-28T10:11:16;29.20;43.30
23377;DHT22;14353;46.070;13.222;2023-05-28T10:13:42;29.20;43.40
23377;DHT22;14353;46.070;13.222;2023-05-28T10:16:08;29.20;43.30
23377;DHT22;14353;46.070;13.222;2023-05-28T10:18:34;29.20;43.30
23377;DHT22;14353;46.070;13.222;2023-05-28T10:21:03;29.20;43.30
23377;DHT22;14353;46.070;13.222;2023-05-28T10:23:31;29.20;43.20
23377;DHT22;14353;46.070;13.222;2023-05-28T10:25:57;29.20;43.30
23377;DHT22;14353;46.070;13.222;2023-05-28T10:28:23;29.20;43.30
23377;DHT22;14353;46.070;13.222;2023-05-28T10:31:05;29.20;43.30
23377;DHT22;14353;46.070;13.222;2023-05-28T10:33:36;29.30;43.30
23377;DHT22;14353;46.070;13.222;2023-05-28T10:36:02;29.20;43.20
23377;DHT22;14353;46.070;13.222;2023-05-28T10:38:29;29.30;43.90
23377;DHT22;14353;46.070;13.222;2023-05-28T10:41:01;29.30;43.30
23377;DHT22;14353;46.070;13.222;2023-05-28T10:43:44;29.30;43.20
23377;DHT22;14353;46.070;13.222;2023-05-28T10:46:20;29.30;43.20
23377;DHT22;14353;46.070;13.222;2023-05-28T10:49:11;29.30;43.20
23377;DHT22;14353;46.070;13.222;2023-05-28T10:57:21;29.30;43.10
23377;DHT22;14353;46.070;13.222;2023-05-28T10:59:47;29.40;43.10
23377;DHT22;14353;46.070;13.222;2023-05-28T11:04:50;29.40;43.20
23377;DHT22;14353;46.070;13.222;2023-05-28T11:07:17;29.40;43.20
23377;DHT22;14353;46.070;13.222;2023-05-28T11:09:48;29.40;43.80
23377;DHT22;14353;46.070;13.222;2023-05-28T11:12:15;29.40;43.20
23377;DHT22;14353;46.070;13.222;2023-05-28T11:14:41;29.40;43.20
23377;DHT22;14353;46.070;13.222;2023-05-28T11:17:09;29.40;43.20
23377;DHT22;14353;46.070;13.222;2023-05-28T11:19:46;29.40;43.10
23377;DHT22;14353;46.070;13.222;2023-05-28T11:22:16;29.40;43.10
23377;DHT22;14353;46.070;13.222;2023-05-28T11:25:03;29.50;43.20
23377;DHT22;14353;46.070;13.222;2023-05-28T11:27:31;29.50;43.10
23377;DHT22;14353;46.070;13.222;2023-05-28T11:30:03;29.50;43.10
23377;DHT22;14353;46.070;13.222;2023-05-28T11:32:33;29.50;43.10
23377;DHT22;14353;46.070;13.222;2023-05-28T11:34:59;29.50;43.00
23377;DHT22;14353;46.070;13.222;2023-05-28T11:37:28;29.50;43.00
23377;DHT22;14353;46.070;13.222;2023-05-28T11:39:57;29.50;43.60
23377;DHT22;14353;46.070;13.222;2023-05-28T11:42:25;29.50;42.90
23377;DHT22;14353;46.070;13.222;2023-05-28T11:44:51;29.60;42.90
23377;DHT22;14353;46.070;13.222;2023-05-28T11:47:17;29.60;42.90
23377;DHT22;14353;46.070;13.222;2023-05-28T11:49:44;29.60;43.70
23377;DHT22;14353;46.070;13.222;2023-05-28T11:52:17;29.60;42.90
23377;DHT22;14353;46.070;13.222;2023-05-28T11:54:52;29.70;43.00
23377;DHT22;14353;46.070;13.222;2023-05-28T11:57:36;29.70;42.90
23377;DHT22;14353;46.070;13.222;2023-05-28T12:00:12;29.70;42.90
23377;DHT22;14353;46.070;13.222;2023-05-28T12:02:53;29.60;42.90
23377;DHT22;14353;46.070;13.222;2023-05-28T12:05:19;29.70;42.90
23377;DHT22;14353;46.070;13.222;2023-05-28T12:07:50;29.70;42.90
23377;DHT22;14353;46.070;13.222;2023-05-28T12:10:18;29.70;42.90
23377;DHT22;14353;46.070;13.222;2023-05-28T12:12:50;29.70;42.90
23377;DHT22;14353;46.070;13.222;2023-05-28T12:15:17;29.70;42.90
23377;DHT22;14353;46.070;13.222;2023-05-28T12:17:45;29.70;42.80
23377;DHT22;14353;46.070;13.222;2023-05-28T12:22:43;29.80;42.80
23377;DHT22;14353;46.070;13.222;2023-05-28T12:25:10;29.80;42.70
23377;DHT22;14353;46.070;13.222;2023-05-28T12:27:37;29.80;42.70
23377;DHT22;14353;46.070;13.222;2023-05-28T12:30:03;29.80;42.70
23377;DHT22;14353;46.070;13.222;2023-05-28T12:32:29;29.80;42.70
23377;DHT22;14353;46.070;13.222;2023-05-28T12:34:55;29.90;42.70
23377;DHT22;14353;46.070;13.222;2023-05-28T12:37:24;29.90;42.60
23377;DHT22;14353;46.070;13.222;2023-05-28T12:39:52;29.90;42.60
23377;DHT22;14353;46.070;13.222;2023-05-28T12:42:18;29.90;42.60
23377;DHT22;14353;46.070;13.222;2023-05-28T12:44:44;29.90;42.50
23377;DHT22;14353;46.070;13.222;2023-05-28T12:47:10;29.90;42.50
23377;DHT22;14353;46.070;13.222;2023-05-28T12:49:36;30.00;42.50
23377;DHT22;14353;46.070;13.222;2023-05-28T12:52:01;30.00;42.50
23377;DHT22;14353;46.070;13.222;2023-05-28T12:54:27;30.00;42.50
23377;DHT22;14353;46.070;13.222;2023-05-28T12:56:53;30.00;42.50
23377;DHT22;14353;46.070;13.222;2023-05-28T12:59:23;30.00;42.50
23377;DHT22;14353;46.070;13.222;2023-05-28T13:01:49;30.00;42.50
23377;DHT22;14353;46.070;13.222;2023-05-28T13:04:16;30.00;42.40
23377;DHT22;14353;46.070;13.222;2023-05-28T13:06:42;30.00;42.40
23377;DHT22;14353;46.070;13.222;2023-05-28T13:09:09;30.00;42.40
23377;DHT22;14353;46.070;13.222;2023-05-28T13:11:35;30.10;42.40
23377;DHT22;14353;46.070;13.222;2023-05-28T13:14:02;30.10;42.40
23377;DHT22;14353;46.070;13.222;2023-05-28T13:16:27;30.10;42.40
23377;DHT22;14353;46.070;13.222;2023-05-28T13:18:53;30.10;42.40
23377;DHT22;14353;46.070;13.222;2023-05-28T13:21:19;30.10;42.30
23377;DHT22;14353;46.070;13.222;2023-05-28T13:23:44;30.10;42.40
23377;DHT22;14353;46.070;13.222;2023-05-28T13:26:10;30.10;42.30
23377;DHT22;14353;46.070;13.222;2023-05-28T13:28:36;30.20;42.40
23377;DHT22;14353;46.070;13.222;2023-05-28T13:31:01;30.20;42.30
23377;DHT22;14353;46.070;13.222;2023-05-28T13:33:27;30.20;42.30
23377;DHT22;14353;46.070;13.222;2023-05-28T13:35:53;30.20;42.30
23377;DHT22;14353;46.070;13.222;2023-05-28T13:38:19;30.30;42.30
23377;DHT22;14353;46.070;13.222;2023-05-28T13:40:45;30.30;42.20
23377;DHT22;14353;46.070;13.222;2023-05-28T13:43:11;30.30;42.20
23377;DHT22;14353;46.070;13.222;2023-05-28T13:45:40;30.30;42.20
23377;DHT22;14353;46.070;13.222;2023-05-28T13:48:06;30.30;42.10
23377;DHT22;14353;46.070;13.222;2023-05-28T13:50:33;30.30;42.10
23377;DHT22;14353;46.070;13.222;2023-05-28T13:52:59;30.30;42.10
23377;DHT22;14353;46.070;13.222;2023-05-28T13:55:25;30.40;42.20
23377;DHT22;14353;46.070;13.222;2023-05-28T13:57:51;30.40;42.20
23377;DHT22;14353;46.070;13.222;2023-05-28T14:00:17;30.40;42.10
23377;DHT22;14353;46.070;13.222;2023-05-28T14:02:44;30.40;42.10
23377;DHT22;14353;46.070;13.222;2023-05-28T14:05:10;30.40;42.00
23377;DHT22;14353;46.070;13.222;2023-05-28T14:07:36;30.40;42.00
23377;DHT22;14353;46.070;13.222;2023-05-28T14:10:02;30.50;42.10
23377;DHT22;14353;46.070;13.222;2023-05-28T14:12:29;30.50;42.10
23377;DHT22;14353;46.070;13.222;2023-05-28T14:14:54;30.50;42.00
23377;DHT22;14353;46.070;13.222;2023-05-28T14:17:20;30.50;42.00
23377;DHT22;14353;46.070;13.222;2023-05-28T14:19:46;30.50;41.90
23377;DHT22;14353;46.070;13.222;2023-05-28T14:22:11;30.50;41.90
23377;DHT22;14353;46.070;13.222;2023-05-28T14:24:37;30.60;42.00
23377;DHT22;14353;46.070;13.222;2023-05-28T14:27:04;30.60;42.00
23377;DHT22;14353;46.070;13.222;2023-05-28T14:29:30;30.60;41.90
23377;DHT22;14353;46.070;13.222;2023-05-28T14:31:55;30.60;41.80
23377;DHT22;14353;46.070;13.222;2023-05-28T14:34:21;30.70;41.80
23377;DHT22;14353;46.070;13.222;2023-05-28T14:36:47;30.70;41.80
23377;DHT22;14353;46.070;13.222;2023-05-28T14:39:12;30.70;41.80
23377;DHT22;14353;46.070;13.222;2023-05-28T14:41:39;30.70;41.70
23377;DHT22;14353;46.070;13.222;2023-05-28T14:44:04;30.70;41.70
23377;DHT22;14353;46.070;13.222;2023-05-28T14:46:30;30.70;41.70
23377;DHT22;14353;46.070;13.222;2023-05-28T14:48:56;30.80;41.60
23377;DHT22;14353;46.070;13.222;2023-05-28T14:51:22;30.80;41.60
23377;DHT22;14353;46.070;13.222;2023-05-28T14:53:48;30.80;41.60
23377;DHT22;14353;46.070;13.222;2023-05-28T14:56:14;30.80;41.60
23377;DHT22;14353;46.070;13.222;2023-05-28T14:58:39;30.80;41.50
23377;DHT22;14353;46.070;13.222;2023-05-28T15:01:05;30.90;42.20
23377;DHT22;14353;46.070;13.222;2023-05-28T15:03:31;30.80;41.50
23377;DHT22;14353;46.070;13.222;2023-05-28T15:05:57;30.80;41.50
23377;DHT22;14353;46.070;13.222;2023-05-28T15:08:23;30.90;41.60
23377;DHT22;14353;46.070;13.222;2023-05-28T15:10:49;30.80;41.50
23377;DHT22;14353;46.070;13.222;2023-05-28T15:13:15;30.80;41.60
23377;DHT22;14353;46.070;13.222;2023-05-28T15:15:40;30.80;41.60
23377;DHT22;14353;46.070;13.222;2023-05-28T15:18:06;30.80;41.60
23377;DHT22;14353;46.070;13.222;2023-05-28T15:20:32;30.80;41.80
23377;DHT22;14353;46.070;13.222;2023-05-28T15:22:57;30.70;41.70